Time;durP1;ratioP1;P1;durP2;ratioP2;P2;SDS_P1;SDS_P2;PMS_P1;PMS_P2;Temp;Humidity;BMP_temperature;BMP_pressure;BME280_temperature;BME280_humidity;BME280_pressure;Samples;Min_cycle;Max_cycle;Signal;HPM_P1;HPM_P2
2022/10/04 00:01:59;;;;;;;;;;;16.50;99.90;;;;;;5092866;28;19914;-75
2022/10/04 00:04:28;;;;;;;;;;;16.50;99.90;;;;;;5092154;28;20348;-76
2022/10/04 00:07:02;;;;;;;;;;;16.50;99.90;;;;;;5092873;28;19962;-75
2022/10/04 00:09:36;;;;;;;;;;;16.50;99.90;;;;;;5093238;28;19934;-76
2022/10/04 00:12:03;;;;;;;;;;;16.50;99.90;;;;;;5093808;28;19915;-73
2022/10/04 00:14:34;;;;;;;;;;;16.50;99.90;;;;;;5093814;28;19915;-76
2022/10/04 00:17:06;;;;;;;;;;;16.50;99.90;;;;;;5091854;28;20344;-76
2022/10/04 00:19:41;;;;;;;;;;;16.50;99.90;;;;;;5092496;28;19915;-76
2022/10/04 00:22:09;;;;;;;;;;;16.50;99.90;;;;;;5092863;28;19912;-75
2022/10/04 00:24:36;;;;;;;;;;;16.50;99.90;;;;;;5092310;28;19912;-75
2022/10/04 00:27:21;;;;;;;;;;;16.50;99.90;;;;;;5093124;28;20404;-76
2022/10/04 00:30:02;;;;;;;;;;;16.50;99.90;;;;;;5091553;28;19908;-76
2022/10/04 00:32:40;;;;;;;;;;;16.50;99.90;;;;;;5093041;28;19909;-76
2022/10/04 00:35:24;;;;;;;;;;;16.50;99.90;;;;;;5093613;28;19909;-76
2022/10/04 00:38:10;;;;;;;;;;;16.50;99.90;;;;;;5092590;28;19912;-76
2022/10/04 00:40:54;;;;;;;;;;;16.50;99.90;;;;;;5084356;28;19992;-75
2022/10/04 00:43:20;;;;;;;;;;;16.50;99.90;;;;;;5093304;28;19923;-75
2022/10/04 00:45:47;;;;;;;;;;;16.50;99.90;;;;;;5092468;28;20468;-76
2022/10/04 00:48:23;;;;;;;;;;;16.50;99.90;;;;;;5093671;28;20018;-75
2022/10/04 00:50:54;;;;;;;;;;;16.50;99.90;;;;;;5092702;28;19908;-76
2022/10/04 00:53:33;;;;;;;;;;;16.50;99.90;;;;;;5092796;28;20365;-76
2022/10/04 00:56:01;;;;;;;;;;;16.50;99.90;;;;;;5091432;28;19981;-76
2022/10/04 00:58:34;;;;;;;;;;;16.50;99.90;;;;;;5093073;28;20009;-76
2022/10/04 01:01:00;;;;;;;;;;;16.50;99.90;;;;;;5092631;28;19918;-76
2022/10/04 01:03:30;;;;;;;;;;;16.50;99.90;;;;;;5092744;28;19962;-77
2022/10/04 01:05:58;;;;;;;;;;;16.50;99.90;;;;;;5092059;28;19912;-77
2022/10/04 01:08:33;;;;;;;;;;;16.50;99.90;;;;;;5093115;28;19967;-77
2022/10/04 01:11:09;;;;;;;;;;;16.50;99.90;;;;;;5092437;28;19943;-75
2022/10/04 01:13:39;;;;;;;;;;;16.50;99.90;;;;;;5093366;28;20262;-76
2022/10/04 01:16:13;;;;;;;;;;;16.50;99.90;;;;;;5092671;28;19908;-76
2022/10/04 01:18:39;;;;;;;;;;;16.60;99.90;;;;;;5092814;28;19912;-76
2022/10/04 01:21:05;;;;;;;;;;;16.50;99.90;;;;;;5092388;28;19915;-76
2022/10/04 01:23:33;;;;;;;;;;;16.60;99.90;;;;;;5092326;28;19916;-76
2022/10/04 01:25:59;;;;;;;;;;;16.60;99.90;;;;;;5092270;28;20759;-76
2022/10/04 01:28:25;;;;;;;;;;;16.60;99.90;;;;;;5092820;28;19912;-76
2022/10/04 01:30:51;;;;;;;;;;;16.50;99.90;;;;;;5092231;28;19908;-76
2022/10/04 01:33:17;;;;;;;;;;;16.60;99.90;;;;;;5093684;28;19909;-76
2022/10/04 01:35:43;;;;;;;;;;;16.60;99.90;;;;;;5096424;28;20384;-77
2022/10/04 01:38:10;;;;;;;;;;;16.60;99.90;;;;;;5095574;28;19908;-74
2022/10/04 01:40:42;;;;;;;;;;;16.50;99.90;;;;;;5096451;28;19930;-75
2022/10/04 01:43:10;;;;;;;;;;;16.50;99.90;;;;;;5096740;28;19931;-75
2022/10/04 01:45:50;;;;;;;;;;;16.50;99.90;;;;;;5096482;28;20360;-76
2022/10/04 01:48:24;;;;;;;;;;;16.50;99.90;;;;;;5096420;28;19913;-75
2022/10/04 01:50:55;;;;;;;;;;;16.60;99.90;;;;;;5095803;28;20432;-75
2022/10/04 01:53:28;;;;;;;;;;;16.60;99.90;;;;;;5096314;28;19948;-76
2022/10/04 01:56:02;;;;;;;;;;;16.60;99.90;;;;;;5095976;28;20003;-76
2022/10/04 01:58:29;;;;;;;;;;;16.60;99.90;;;;;;5095206;28;19911;-75
2022/10/04 02:01:00;;;;;;;;;;;16.60;99.90;;;;;;5095574;28;20424;-76
2022/10/04 02:03:37;;;;;;;;;;;16.60;99.90;;;;;;5096291;28;19908;-75
2022/10/04 02:06:04;;;;;;;;;;;16.60;99.90;;;;;;5095852;28;19919;-75
2022/10/04 02:08:32;;;;;;;;;;;16.60;99.90;;;;;;5096664;28;19919;-77
2022/10/04 02:10:59;;;;;;;;;;;16.60;99.90;;;;;;5095714;28;19908;-75
2022/10/04 02:13:28;;;;;;;;;;;16.70;99.90;;;;;;5096152;28;19908;-75
2022/10/04 02:15:54;;;;;;;;;;;16.60;99.90;;;;;;5095485;28;19912;-76
2022/10/04 02:18:21;;;;;;;;;;;16.60;99.90;;;;;;5095850;28;19958;-75
2022/10/04 02:20:48;;;;;;;;;;;16.60;99.90;;;;;;5094626;28;19908;-76
2022/10/04 02:23:15;;;;;;;;;;;16.60;99.90;;;;;;5095860;28;20381;-76
2022/10/04 02:25:41;;;;;;;;;;;16.70;99.90;;;;;;5094371;28;19934;-75
2022/10/04 02:28:10;;;;;;;;;;;16.60;99.90;;;;;;5095037;28;20361;-75
2022/10/04 02:30:37;;;;;;;;;;;16.70;99.90;;;;;;5095912;28;19961;-75
2022/10/04 02:33:02;;;;;;;;;;;16.60;99.90;;;;;;5095195;28;20388;-75
2022/10/04 02:35:30;;;;;;;;;;;16.60;99.90;;;;;;5094377;28;19999;-75
2022/10/04 02:38:14;;;;;;;;;;;16.60;99.90;;;;;;5095111;28;19961;-75
2022/10/04 02:40:47;;;;;;;;;;;16.60;99.90;;;;;;5095960;28;20398;-75
2022/10/04 02:43:17;;;;;;;;;;;16.70;99.90;;;;;;5095883;28;19998;-75
2022/10/04 02:46:19;;;;;;;;;;;16.70;99.90;;;;;;5094266;28;19923;-75
2022/10/04 02:48:52;;;;;;;;;;;16.70;99.90;;;;;;5072964;28;19913;-75
2022/10/04 02:51:43;;;;;;;;;;;16.70;99.90;;;;;;5091473;28;19908;-76
2022/10/04 02:54:27;;;;;;;;;;;16.70;99.90;;;;;;5093221;28;19912;-76
2022/10/04 02:56:54;;;;;;;;;;;16.70;99.90;;;;;;5094750;28;19934;-74
2022/10/04 02:59:20;;;;;;;;;;;16.60;99.90;;;;;;5095312;28;19908;-75
2022/10/04 03:01:59;;;;;;;;;;;16.60;99.90;;;;;;5094918;28;20314;-75
2022/10/04 03:04:26;;;;;;;;;;;16.60;99.90;;;;;;5095033;28;19915;-75
2022/10/04 03:06:53;;;;;;;;;;;16.60;99.90;;;;;;5094582;28;19912;-75
2022/10/04 03:09:20;;;;;;;;;;;16.70;99.90;;;;;;5095149;28;19915;-75
2022/10/04 03:11:46;;;;;;;;;;;16.70;99.90;;;;;;5094696;28;19908;-76
2022/10/04 03:14:13;;;;;;;;;;;16.70;99.90;;;;;;5094956;28;19951;-76
2022/10/04 03:16:42;;;;;;;;;;;16.70;99.90;;;;;;5094672;28;19908;-75
2022/10/04 03:19:08;;;;;;;;;;;16.70;99.90;;;;;;5094408;28;19912;-75
2022/10/04 03:21:35;;;;;;;;;;;16.60;99.90;;;;;;5094816;28;19908;-75
2022/10/04 03:24:03;;;;;;;;;;;16.70;99.90;;;;;;5094014;28;19908;-75
2022/10/04 03:26:40;;;;;;;;;;;16.70;99.90;;;;;;5094441;28;20373;-75
2022/10/04 03:29:09;;;;;;;;;;;16.70;99.90;;;;;;5093808;28;20394;-76
2022/10/04 03:31:38;;;;;;;;;;;16.60;99.90;;;;;;5094694;28;19934;-75
2022/10/04 03:34:03;;;;;;;;;;;16.70;99.90;;;;;;5094003;28;19912;-75
2022/10/04 03:36:29;;;;;;;;;;;16.60;99.90;;;;;;5094469;28;20375;-76
2022/10/04 03:38:56;;;;;;;;;;;16.70;99.90;;;;;;5094019;28;19908;-76
2022/10/04 03:41:24;;;;;;;;;;;16.70;99.90;;;;;;5094491;28;19908;-76
2022/10/04 03:43:52;;;;;;;;;;;16.70;99.90;;;;;;5093615;28;19920;-77
2022/10/04 03:46:18;;;;;;;;;;;16.70;99.90;;;;;;5094364;28;19916;-77
2022/10/04 03:48:45;;;;;;;;;;;16.70;99.90;;;;;;5094242;28;19915;-76
2022/10/04 03:51:16;;;;;;;;;;;16.70;99.90;;;;;;5093706;28;20349;-76
2022/10/04 03:53:44;;;;;;;;;;;16.70;99.90;;;;;;5094274;28;19987;-76
2022/10/04 03:56:30;;;;;;;;;;;16.70;99.90;;;;;;5092895;28;20123;-77
2022/10/04 03:58:56;;;;;;;;;;;16.80;99.90;;;;;;5092879;28;19908;-77
2022/10/04 04:01:30;;;;;;;;;;;16.80;99.90;;;;;;5094033;28;19908;-77
2022/10/04 04:04:00;;;;;;;;;;;16.80;99.90;;;;;;5093437;28;19908;-77
2022/10/04 04:06:30;;;;;;;;;;;16.80;99.90;;;;;;5094120;28;19912;-77
2022/10/04 04:08:56;;;;;;;;;;;16.70;99.90;;;;;;5093407;28;19950;-76
2022/10/04 04:11:24;;;;;;;;;;;16.80;99.90;;;;;;5093749;28;20349;-76
2022/10/04 04:13:50;;;;;;;;;;;16.80;99.90;;;;;;5093535;28;20365;-76
2022/10/04 04:16:18;;;;;;;;;;;16.80;99.90;;;;;;5093505;28;19908;-76
2022/10/04 04:18:45;;;;;;;;;;;16.80;99.90;;;;;;5093717;28;20002;-76
2022/10/04 04:21:13;;;;;;;;;;;16.80;99.90;;;;;;5092896;28;19908;-77
2022/10/04 04:23:42;;;;;;;;;;;16.70;99.90;;;;;;5093827;28;19958;-76
2022/10/04 04:26:10;;;;;;;;;;;16.70;99.90;;;;;;5091446;28;20017;-76
2022/10/04 04:28:41;;;;;;;;;;;16.70;99.90;;;;;;5093633;28;19913;-76
2022/10/04 04:31:15;;;;;;;;;;;16.70;99.90;;;;;;5092714;28;20266;-75
2022/10/04 04:33:59;;;;;;;;;;;16.70;99.90;;;;;;5093828;28;19915;-76
2022/10/04 04:36:28;;;;;;;;;;;16.70;99.90;;;;;;5092293;28;19909;-76
2022/10/04 04:41:49;;;;;;;;;;;16.70;99.90;;;;;;5093175;28;19922;-78
2022/10/04 04:44:16;;;;;;;;;;;16.70;99.90;;;;;;5092926;28;19928;-76
2022/10/04 04:46:43;;;;;;;;;;;16.70;99.90;;;;;;5093477;28;20402;-76
2022/10/04 04:49:10;;;;;;;;;;;16.70;99.90;;;;;;5092705;28;19919;-77
2022/10/04 04:51:36;;;;;;;;;;;16.70;99.90;;;;;;5093249;28;19908;-77
2022/10/04 04:54:05;;;;;;;;;;;16.70;99.90;;;;;;5092650;28;19947;-76
2022/10/04 04:56:31;;;;;;;;;;;16.70;99.90;;;;;;5093264;28;20308;-76
2022/10/04 04:59:00;;;;;;;;;;;16.70;99.90;;;;;;5092297;28;19965;-76
2022/10/04 05:01:26;;;;;;;;;;;16.70;99.90;;;;;;5093008;28;20256;-76
2022/10/04 05:04:01;;;;;;;;;;;16.80;99.90;;;;;;5093112;28;19999;-77
2022/10/04 05:06:29;;;;;;;;;;;16.80;99.90;;;;;;5093006;28;19912;-76
2022/10/04 05:08:55;;;;;;;;;;;16.70;99.90;;;;;;5092394;28;19912;-75
2022/10/04 05:11:21;;;;;;;;;;;16.70;99.90;;;;;;5092455;28;19908;-76
2022/10/04 05:13:52;;;;;;;;;;;16.70;99.90;;;;;;5091743;28;20346;-75
2022/10/04 05:16:19;;;;;;;;;;;16.70;99.90;;;;;;5092402;28;19952;-76
2022/10/04 05:18:45;;;;;;;;;;;16.70;99.90;;;;;;5092675;28;20065;-76
2022/10/04 05:21:13;;;;;;;;;;;16.70;99.90;;;;;;5092457;28;20405;-76
2022/10/04 05:23:39;;;;;;;;;;;16.60;99.90;;;;;;5093009;28;19908;-75
2022/10/04 05:26:09;;;;;;;;;;;16.60;99.90;;;;;;5092114;28;20479;-76
2022/10/04 05:28:34;;;;;;;;;;;16.50;99.90;;;;;;5092355;28;20377;-75
2022/10/04 05:31:11;;;;;;;;;;;16.50;99.90;;;;;;5092270;28;19997;-76
2022/10/04 05:33:48;;;;;;;;;;;16.50;99.90;;;;;;5092976;28;19908;-76
2022/10/04 05:36:43;;;;;;;;;;;16.50;99.90;;;;;;5092242;28;19926;-76
2022/10/04 05:39:12;;;;;;;;;;;16.40;99.90;;;;;;5086856;28;19908;-77
2022/10/04 05:41:41;;;;;;;;;;;16.40;99.90;;;;;;5091414;28;19954;-76
2022/10/04 05:44:24;;;;;;;;;;;16.40;99.90;;;;;;5092177;28;19920;-76
2022/10/04 05:46:51;;;;;;;;;;;16.40;99.90;;;;;;5092718;28;19923;-76
2022/10/04 05:49:18;;;;;;;;;;;16.40;99.90;;;;;;5092040;28;20349;-77
2022/10/04 05:51:47;;;;;;;;;;;16.40;99.90;;;;;;5092714;28;19948;-76
2022/10/04 05:54:17;;;;;;;;;;;16.40;99.90;;;;;;5091845;28;20050;-75
2022/10/04 05:56:46;;;;;;;;;;;16.40;99.90;;;;;;5092611;28;19918;-75
2022/10/04 05:59:30;;;;;;;;;;;16.30;99.90;;;;;;5091509;28;19908;-77
2022/10/04 06:02:10;;;;;;;;;;;16.30;99.90;;;;;;5092481;28;19908;-75
2022/10/04 06:04:42;;;;;;;;;;;16.30;99.90;;;;;;5092066;28;20280;-75
2022/10/04 06:07:13;;;;;;;;;;;16.40;99.90;;;;;;5091577;28;19920;-76
2022/10/04 06:09:54;;;;;;;;;;;16.40;99.90;;;;;;5092492;28;19923;-75
2022/10/04 06:12:23;;;;;;;;;;;16.30;99.90;;;;;;5091850;28;19935;-75
2022/10/04 06:15:02;;;;;;;;;;;16.30;99.90;;;;;;5092006;28;19912;-76
2022/10/04 06:17:28;;;;;;;;;;;16.40;99.90;;;;;;5092525;28;19993;-76
2022/10/04 06:20:23;;;;;;;;;;;16.40;99.90;;;;;;5092230;28;20335;-76
2022/10/04 06:22:55;;;;;;;;;;;16.40;99.90;;;;;;5090520;28;20333;-76
2022/10/04 06:25:33;;;;;;;;;;;16.50;99.90;;;;;;5093705;28;19912;-76
2022/10/04 06:28:05;;;;;;;;;;;16.50;99.90;;;;;;5095255;28;20289;-75
2022/10/04 06:30:45;;;;;;;;;;;16.50;99.90;;;;;;5075493;28;20001;-76
2022/10/04 06:33:13;;;;;;;;;;;16.50;99.90;;;;;;5107327;28;19912;-76
2022/10/04 06:36:01;;;;;;;;;;;16.50;99.90;;;;;;5075401;28;19909;-75
2022/10/04 06:38:30;;;;;;;;;;;16.50;99.90;;;;;;5075096;28;19909;-76
2022/10/04 06:40:58;;;;;;;;;;;16.50;99.90;;;;;;5073996;28;20289;-75
2022/10/04 06:43:47;;;;;;;;;;;16.50;99.90;;;;;;5074215;28;19924;-75
2022/10/04 06:46:36;;;;;;;;;;;16.40;99.90;;;;;;5054964;28;19916;-76
2022/10/04 06:49:06;;;;;;;;;;;16.40;99.90;;;;;;5075062;28;19962;-76
2022/10/04 06:51:50;;;;;;;;;;;16.40;99.90;;;;;;5075093;28;19909;-75
2022/10/04 06:54:17;;;;;;;;;;;16.40;99.90;;;;;;5074187;28;20421;-77
2022/10/04 06:57:13;;;;;;;;;;;16.40;99.90;;;;;;5074992;28;20003;-76
2022/10/04 06:59:38;;;;;;;;;;;16.40;99.90;;;;;;5074869;28;19915;-77
2022/10/04 07:02:12;;;;;;;;;;;16.40;99.90;;;;;;5074608;28;19909;-76
2022/10/04 07:04:45;;;;;;;;;;;16.30;99.90;;;;;;5074601;28;20379;-75
2022/10/04 07:07:23;;;;;;;;;;;16.40;99.90;;;;;;5073995;28;19913;-75
2022/10/04 07:09:53;;;;;;;;;;;16.40;99.90;;;;;;5074533;28;19909;-77
2022/10/04 07:12:18;;;;;;;;;;;16.40;99.90;;;;;;5074013;28;19912;-76
2022/10/04 07:14:46;;;;;;;;;;;16.50;99.90;;;;;;5074810;28;19961;-76
2022/10/04 07:17:31;;;;;;;;;;;16.50;99.90;;;;;;5073971;28;19909;-76
2022/10/04 07:19:58;;;;;;;;;;;16.50;99.90;;;;;;5074671;28;20264;-76
2022/10/04 07:22:23;;;;;;;;;;;16.50;99.90;;;;;;5073733;28;20409;-77
2022/10/04 07:24:55;;;;;;;;;;;16.60;99.90;;;;;;5074463;28;20053;-76
2022/10/04 07:27:26;;;;;;;;;;;16.60;99.90;;;;;;5073752;28;19912;-75
2022/10/04 07:29:56;;;;;;;;;;;16.70;99.90;;;;;;5072858;28;19915;-76
2022/10/04 07:32:26;;;;;;;;;;;16.60;99.90;;;;;;5073126;28;19915;-77
2022/10/04 07:34:54;;;;;;;;;;;16.70;99.90;;;;;;5073933;28;19909;-76
2022/10/04 07:37:20;;;;;;;;;;;16.70;99.90;;;;;;5073645;28;19936;-75
2022/10/04 07:39:53;;;;;;;;;;;16.80;99.90;;;;;;5074075;28;19908;-75
2022/10/04 07:42:25;;;;;;;;;;;16.80;99.90;;;;;;5073308;28;20316;-76
2022/10/04 07:45:14;;;;;;;;;;;16.90;99.90;;;;;;5073748;28;19920;-76
2022/10/04 07:47:40;;;;;;;;;;;16.90;99.90;;;;;;5068397;28;20349;-77
2022/10/04 07:50:18;;;;;;;;;;;16.90;99.90;;;;;;5073634;28;19954;-76
2022/10/04 07:52:47;;;;;;;;;;;17.00;99.90;;;;;;5073735;28;20354;-76
2022/10/04 07:55:32;;;;;;;;;;;17.00;99.90;;;;;;5073252;28;19923;-76
2022/10/04 07:58:06;;;;;;;;;;;17.00;99.90;;;;;;5073776;28;19914;-76
2022/10/04 08:00:51;;;;;;;;;;;17.00;99.90;;;;;;5072795;28;19915;-76
2022/10/04 08:03:23;;;;;;;;;;;17.10;99.90;;;;;;5088838;28;19962;-76
2022/10/04 08:06:12;;;;;;;;;;;17.10;99.90;;;;;;5073477;28;19916;-76
2022/10/04 08:08:41;;;;;;;;;;;17.20;99.90;;;;;;5067614;28;19954;-76
2022/10/04 08:11:26;;;;;;;;;;;17.20;99.90;;;;;;5073317;28;19973;-77
2022/10/04 08:14:10;;;;;;;;;;;17.30;99.90;;;;;;5071926;28;19915;-76
2022/10/04 08:16:42;;;;;;;;;;;17.30;99.90;;;;;;5072060;28;20281;-77
2022/10/04 08:19:16;;;;;;;;;;;17.30;99.90;;;;;;5073436;28;19920;-77
2022/10/04 08:21:49;;;;;;;;;;;17.30;99.90;;;;;;5072064;28;20361;-77
2022/10/04 08:24:21;;;;;;;;;;;17.30;99.90;;;;;;5072606;28;19908;-76
2022/10/04 08:26:59;;;;;;;;;;;17.30;99.90;;;;;;5073137;28;20349;-78
2022/10/04 08:29:47;;;;;;;;;;;17.30;99.90;;;;;;5071862;28;19915;-77
2022/10/04 08:32:22;;;;;;;;;;;17.30;99.90;;;;;;5051928;28;19909;-78
2022/10/04 08:35:05;;;;;;;;;;;17.30;99.90;;;;;;5072926;28;19909;-78
2022/10/04 08:37:58;;;;;;;;;;;17.30;99.90;;;;;;5072372;28;20366;-78
2022/10/04 08:40:26;;;;;;;;;;;17.30;99.90;;;;;;5055902;28;20030;-77
2022/10/04 08:43:07;;;;;;;;;;;17.30;99.90;;;;;;5071854;28;20007;-78
2022/10/04 08:46:11;;;;;;;;;;;17.30;99.90;;;;;;5072286;28;19917;-77
2022/10/04 08:48:57;;;;;;;;;;;17.40;99.90;;;;;;5030066;28;19915;-77
2022/10/04 08:51:41;;;;;;;;;;;17.40;99.90;;;;;;5030202;28;20282;-77
2022/10/04 08:54:16;;;;;;;;;;;17.50;99.90;;;;;;5060981;28;19948;-77
2022/10/04 08:56:59;;;;;;;;;;;17.50;99.90;;;;;;5072148;28;19908;-77
2022/10/04 08:59:45;;;;;;;;;;;17.60;99.90;;;;;;5072029;28;19915;-77
2022/10/04 09:02:37;;;;;;;;;;;17.60;99.90;;;;;;5071459;28;19908;-77
2022/10/04 09:05:06;;;;;;;;;;;17.60;99.90;;;;;;5071962;28;19924;-77
2022/10/04 09:07:31;;;;;;;;;;;17.70;99.90;;;;;;5071099;28;20129;-77
2022/10/04 09:10:03;;;;;;;;;;;17.70;99.90;;;;;;5072157;28;20353;-77
2022/10/04 09:12:39;;;;;;;;;;;17.80;99.90;;;;;;5071670;28;19993;-77
2022/10/04 09:15:05;;;;;;;;;;;17.80;99.90;;;;;;5072099;28;19909;-78
2022/10/04 09:17:32;;;;;;;;;;;17.80;99.90;;;;;;5071128;28;20031;-77
2022/10/04 09:20:00;;;;;;;;;;;17.80;99.90;;;;;;5072347;28;19955;-78
2022/10/04 09:22:38;;;;;;;;;;;17.80;99.90;;;;;;5071780;28;20365;-77
2022/10/04 09:25:21;;;;;;;;;;;17.80;99.90;;;;;;5071820;28;19924;-77
2022/10/04 09:28:05;;;;;;;;;;;17.80;99.90;;;;;;5072323;28;20018;-78
2022/10/04 09:30:50;;;;;;;;;;;17.90;99.90;;;;;;5071341;28;19909;-78
2022/10/04 09:33:24;;;;;;;;;;;17.90;99.90;;;;;;5071131;28;19908;-78
2022/10/04 09:36:05;;;;;;;;;;;17.90;99.90;;;;;;5071942;28;19908;-78
2022/10/04 09:38:42;;;;;;;;;;;17.90;99.90;;;;;;5071333;28;19999;-79
2022/10/04 09:41:33;;;;;;;;;;;18.00;99.90;;;;;;5071927;28;19923;-77
2022/10/04 09:44:17;;;;;;;;;;;18.00;99.90;;;;;;5071676;28;20330;-78
2022/10/04 09:46:51;;;;;;;;;;;18.00;99.90;;;;;;5070584;28;19923;-77
2022/10/04 09:49:35;;;;;;;;;;;18.10;99.90;;;;;;5081682;28;19919;-78
2022/10/04 09:52:16;;;;;;;;;;;18.10;99.90;;;;;;5071572;28;19909;-78
2022/10/04 09:55:03;;;;;;;;;;;18.10;99.90;;;;;;5073050;28;19985;-77
2022/10/04 09:57:32;;;;;;;;;;;18.00;99.90;;;;;;5074724;28;20404;-78
2022/10/04 10:00:20;;;;;;;;;;;17.90;99.90;;;;;;5075445;28;19916;-78
2022/10/04 10:03:22;;;;;;;;;;;17.70;99.90;;;;;;5074912;28;20399;-78
2022/10/04 10:05:54;;;;;;;;;;;17.60;99.90;;;;;;5035936;28;19999;-78
2022/10/04 10:08:26;;;;;;;;;;;17.40;99.90;;;;;;5070602;28;19916;-78
2022/10/04 10:13:54;;;;;;;;;;;17.20;99.90;;;;;;5074983;28;19919;-78
2022/10/04 10:16:37;;;;;;;;;;;17.20;99.90;;;;;;5074377;28;19912;-78
2022/10/04 10:19:10;;;;;;;;;;;17.20;99.90;;;;;;5074884;28;20350;-78
2022/10/04 10:21:38;;;;;;;;;;;17.10;99.90;;;;;;5094167;28;19948;-78
2022/10/04 10:24:16;;;;;;;;;;;17.10;99.90;;;;;;5095535;28;20418;-78
2022/10/04 10:26:57;;;;;;;;;;;17.00;99.90;;;;;;5095067;28;19971;-77
2022/10/04 10:29:34;;;;;;;;;;;17.00;99.90;;;;;;5093121;28;19908;-78
2022/10/04 10:32:14;;;;;;;;;;;17.00;99.90;;;;;;5094413;28;19912;-77
2022/10/04 10:34:43;;;;;;;;;;;16.90;99.90;;;;;;5094672;28;20365;-77
2022/10/04 10:37:12;;;;;;;;;;;16.90;99.90;;;;;;5094956;28;19908;-78
2022/10/04 10:39:44;;;;;;;;;;;17.00;99.90;;;;;;5094694;28;19908;-78
2022/10/04 10:42:18;;;;;;;;;;;16.90;99.90;;;;;;5094766;28;20307;-78
2022/10/04 10:44:47;;;;;;;;;;;16.90;99.90;;;;;;5094203;28;19924;-77
2022/10/04 10:47:21;;;;;;;;;;;16.90;99.90;;;;;;5094122;28;19912;-77
2022/10/04 10:49:57;;;;;;;;;;;16.90;99.90;;;;;;5094916;28;20004;-78
2022/10/04 10:52:41;;;;;;;;;;;17.00;99.90;;;;;;5094058;28;19908;-78
2022/10/04 10:55:25;;;;;;;;;;;17.00;99.90;;;;;;5094363;28;20595;-78
2022/10/04 10:58:10;;;;;;;;;;;17.00;99.90;;;;;;5094988;28;19919;-78
2022/10/04 11:00:51;;;;;;;;;;;17.00;99.90;;;;;;5094132;28;20003;-78
2022/10/04 11:03:23;;;;;;;;;;;17.20;99.90;;;;;;5093679;28;19916;-78
2022/10/04 11:05:56;;;;;;;;;;;17.20;99.90;;;;;;5093526;28;19967;-78
2022/10/04 11:08:31;;;;;;;;;;;17.30;99.90;;;;;;5093562;28;20397;-78
2022/10/04 11:11:02;;;;;;;;;;;17.40;99.90;;;;;;5092902;28;19973;-78
2022/10/04 11:13:53;;;;;;;;;;;17.40;99.90;;;;;;5093601;28;19908;-78
2022/10/04 11:16:27;;;;;;;;;;;17.40;99.90;;;;;;5093081;28;20463;-77
2022/10/04 11:19:14;;;;;;;;;;;17.50;99.90;;;;;;5094178;28;19908;-77
2022/10/04 11:21:40;;;;;;;;;;;17.40;99.90;;;;;;5093999;28;19908;-77
2022/10/04 11:24:13;;;;;;;;;;;17.30;99.90;;;;;;5093965;28;20254;-77
2022/10/04 11:26:58;;;;;;;;;;;17.40;99.90;;;;;;5092513;28;19972;-77
2022/10/04 11:29:29;;;;;;;;;;;17.30;99.90;;;;;;5072998;28;20385;-78
2022/10/04 11:32:01;;;;;;;;;;;17.30;99.90;;;;;;5073397;28;20007;-78
2022/10/04 11:34:45;;;;;;;;;;;17.40;99.90;;;;;;5072803;28;19909;-78
2022/10/04 11:37:34;;;;;;;;;;;17.40;99.90;;;;;;5073342;28;19955;-78
2022/10/04 11:40:18;;;;;;;;;;;17.40;99.90;;;;;;5053559;28;20346;-77
2022/10/04 11:42:59;;;;;;;;;;;17.40;99.90;;;;;;5073063;28;19953;-77
2022/10/04 11:45:32;;;;;;;;;;;17.40;99.90;;;;;;5072625;28;19975;-77
2022/10/04 11:47:57;;;;;;;;;;;17.40;99.90;;;;;;5073438;28;19935;-78
2022/10/04 11:50:26;;;;;;;;;;;17.50;99.90;;;;;;5072624;28;20361;-78
2022/10/04 11:52:51;;;;;;;;;;;17.50;99.90;;;;;;5072990;28;19912;-77
2022/10/04 11:55:25;;;;;;;;;;;17.60;99.90;;;;;;5072397;28;19915;-77
2022/10/04 11:57:56;;;;;;;;;;;17.60;99.90;;;;;;5073167;28;20019;-78
2022/10/04 12:00:27;;;;;;;;;;;17.70;99.90;;;;;;5072232;28;19908;-77
2022/10/04 12:03:09;;;;;;;;;;;17.80;99.90;;;;;;5072878;28;19908;-79
2022/10/04 12:05:47;;;;;;;;;;;17.90;99.90;;;;;;5072206;28;19959;-78
2022/10/04 12:08:24;;;;;;;;;;;17.90;99.90;;;;;;5072769;28;19916;-77
2022/10/04 12:11:06;;;;;;;;;;;17.90;99.90;;;;;;5072764;28;19908;-78
2022/10/04 12:13:32;;;;;;;;;;;17.90;99.90;;;;;;5072330;28;19970;-78
2022/10/04 12:16:14;;;;;;;;;;;18.00;99.90;;;;;;5072702;28;19912;-78
2022/10/04 12:19:00;;;;;;;;;;;18.00;99.90;;;;;;5073192;28;19966;-77
2022/10/04 12:21:49;;;;;;;;;;;18.00;99.90;;;;;;5072129;28;19917;-77
2022/10/04 12:24:31;;;;;;;;;;;18.00;99.90;;;;;;5072003;28;19909;-78
2022/10/04 12:27:12;;;;;;;;;;;18.00;99.90;;;;;;5072262;28;20009;-79
2022/10/04 12:29:47;;;;;;;;;;;18.00;99.90;;;;;;5072217;28;19955;-78
2022/10/04 12:32:17;;;;;;;;;;;18.00;99.90;;;;;;5071854;28;19909;-77
2022/10/04 12:35:01;;;;;;;;;;;18.00;99.90;;;;;;5072278;28;19916;-77
2022/10/04 12:37:37;;;;;;;;;;;18.10;99.90;;;;;;5072005;28;19909;-78
2022/10/04 12:40:09;;;;;;;;;;;18.10;99.90;;;;;;5072360;28;20425;-76
2022/10/04 12:42:34;;;;;;;;;;;18.30;99.90;;;;;;5071839;28;20257;-79
2022/10/04 12:45:15;;;;;;;;;;;18.40;99.90;;;;;;5072408;28;19916;-78
2022/10/04 12:47:47;;;;;;;;;;;18.30;99.90;;;;;;5071751;28;20315;-79
2022/10/04 12:50:31;;;;;;;;;;;18.40;99.90;;;;;;5072458;28;19915;-77
2022/10/04 12:52:59;;;;;;;;;;;18.50;99.90;;;;;;5072402;28;19909;-78
2022/10/04 12:55:37;;;;;;;;;;;18.50;99.90;;;;;;5071742;28;19908;-79
2022/10/04 12:58:06;;;;;;;;;;;18.50;99.90;;;;;;5072047;28;20426;-76
2022/10/04 13:00:35;;;;;;;;;;;18.50;99.90;;;;;;5083984;28;20234;-79
2022/10/04 13:03:07;;;;;;;;;;;18.50;99.90;;;;;;5092562;28;19908;-78
2022/10/04 13:05:33;;;;;;;;;;;18.50;99.90;;;;;;5091550;28;19999;-78
2022/10/04 13:08:04;;;;;;;;;;;18.50;99.90;;;;;;5091074;28;20379;-78
2022/10/04 13:10:30;;;;;;;;;;;18.50;99.90;;;;;;5091860;28;20009;-78
2022/10/04 13:13:17;;;;;;;;;;;18.50;99.90;;;;;;5092402;28;19913;-78
2022/10/04 13:15:42;;;;;;;;;;;18.40;99.90;;;;;;5092298;28;19915;-79
2022/10/04 13:18:08;;;;;;;;;;;18.40;99.90;;;;;;5092372;28;19908;-78
2022/10/04 13:20:44;;;;;;;;;;;18.30;99.90;;;;;;5090652;28;19915;-77
2022/10/04 13:23:20;;;;;;;;;;;18.30;99.90;;;;;;5092559;28;19908;-78
2022/10/04 13:26:04;;;;;;;;;;;18.30;99.90;;;;;;5092472;28;19912;-78
2022/10/04 13:28:48;;;;;;;;;;;18.30;99.90;;;;;;5091620;28;20384;-78
2022/10/04 13:31:33;;;;;;;;;;;18.20;99.90;;;;;;5095821;28;20006;-77
2022/10/04 13:34:01;;;;;;;;;;;18.10;99.90;;;;;;5096493;28;19909;-79
2022/10/04 13:36:45;;;;;;;;;;;18.10;99.90;;;;;;5095536;28;19910;-78
2022/10/04 13:39:29;;;;;;;;;;;18.00;99.90;;;;;;5096296;28;19931;-78
2022/10/04 13:42:14;;;;;;;;;;;18.00;99.90;;;;;;5096231;28;19916;-78
2022/10/04 13:44:58;;;;;;;;;;;18.00;99.90;;;;;;5095552;28;19920;-77
2022/10/04 13:47:42;;;;;;;;;;;18.00;99.90;;;;;;5094128;28;20312;-79
2022/10/04 13:50:08;;;;;;;;;;;18.00;99.90;;;;;;5095816;28;19934;-78
2022/10/04 13:58:54;;;;;;;;;;;17.70;99.90;;;;;;5095368;28;19965;-78
2022/10/04 14:01:20;;;;;;;;;;;17.60;99.90;;;;;;5094860;28;19995;-79
2022/10/04 14:04:04;;;;;;;;;;;17.60;99.90;;;;;;5095724;28;19991;-79
2022/10/04 14:06:49;;;;;;;;;;;17.50;99.90;;;;;;5094573;28;19912;-79
2022/10/04 14:09:14;;;;;;;;;;;17.60;99.90;;;;;;5095413;28;19920;-78
2022/10/04 14:11:49;;;;;;;;;;;17.60;99.90;;;;;;5094837;28;19915;-79
2022/10/04 14:14:33;;;;;;;;;;;17.50;99.90;;;;;;5094886;28;20634;-78
2022/10/04 14:17:05;;;;;;;;;;;17.60;99.90;;;;;;5095264;28;19912;-81
2022/10/04 14:19:42;;;;;;;;;;;17.60;99.90;;;;;;5094606;28;19915;-79
2022/10/04 14:22:08;;;;;;;;;;;17.60;99.90;;;;;;5095228;28;20010;-80
2022/10/04 14:24:34;;;;;;;;;;;17.60;99.90;;;;;;5094467;28;20655;-78
2022/10/04 14:27:26;;;;;;;;;;;17.60;99.90;;;;;;5095102;28;20358;-79
2022/10/04 14:30:07;;;;;;;;;;;17.50;99.90;;;;;;5069122;28;19919;-75
2022/10/04 14:32:32;;;;;;;;;;;17.60;99.90;;;;;;5093215;28;19908;-76
2022/10/04 14:35:01;;;;;;;;;;;17.60;99.90;;;;;;5093485;28;19915;-76
2022/10/04 14:37:32;;;;;;;;;;;17.60;99.90;;;;;;5093889;28;19908;-76
2022/10/04 14:39:58;;;;;;;;;;;17.60;99.90;;;;;;5094277;28;19915;-76
2022/10/04 14:42:47;;;;;;;;;;;17.60;99.90;;;;;;5093134;28;19925;-75
2022/10/04 14:45:15;;;;;;;;;;;17.60;99.90;;;;;;5074716;28;19942;-76
2022/10/04 14:48:11;;;;;;;;;;;17.70;99.90;;;;;;5094656;28;19972;-76
2022/10/04 14:50:56;;;;;;;;;;;17.80;99.90;;;;;;5056274;28;20511;-76
2022/10/04 14:53:26;;;;;;;;;;;17.80;99.90;;;;;;5094697;28;19916;-76
2022/10/04 14:55:52;;;;;;;;;;;17.80;99.90;;;;;;5095156;28;19908;-76
2022/10/04 14:58:30;;;;;;;;;;;17.80;99.90;;;;;;5094482;28;20213;-76
2022/10/04 15:01:14;;;;;;;;;;;17.80;99.90;;;;;;5094448;28;19909;-77
2022/10/04 15:04:01;;;;;;;;;;;17.70;99.90;;;;;;5093876;28;19915;-76
2022/10/04 15:06:35;;;;;;;;;;;17.80;99.90;;;;;;5094383;28;19916;-76
2022/10/04 15:09:06;;;;;;;;;;;17.80;99.90;;;;;;5094543;28;19916;-75